CST,Max TemperatureF,Mean TemperatureF,Min TemperatureF,Max Dew PointF,MeanDew PointF,Min DewpointF,Max Humidity, Mean Humidity, Min Humidity, Max Sea Level PressureIn, Mean Sea Level PressureIn, Min Sea Level PressureIn, Max VisibilityMiles, Mean VisibilityMiles, Min VisibilityMiles, Max Wind SpeedMPH, Mean Wind SpeedMPH, Max Gust SpeedMPH,PrecipitationIn, CloudCover, Events, WindDirDegrees
2011-11-1,69,51,33,36,33,31,89,58,26,30.27,30.22,30.18,10,10,10,16,5,21,0.00,0,,175
2011-11-2,69,55,40,40,36,32,70,51,32,30.26,30.16,30.02,10,10,2,18,7,24,0.00,0,,171
2011-11-3,54,50,45,52,43,37,93,74,54,30.00,29.89,29.78,10,7,2,20,7,24,0.54,7,Rain,203
2011-11-4,61,50,38,47,43,35,86,69,51,30.25,30.15,29.98,10,8,5,15,6,21,0.00,5,,14
2011-11-5,63,49,35,42,37,32,89,64,39,30.28,30.21,30.14,10,10,10,12,5,16,0.00,0,,109
2011-11-6,65,56,47,42,39,34,74,59,43,30.30,30.23,30.15,10,10,10,18,9,24,0.00,3,,168
2011-11-7,69,61,53,54,49,42,77,66,55,30.28,30.22,30.16,10,10,10,14,5,18,0.00,5,,146
2011-11-8,73,62,51,53,50,46,83,66,49,30.14,30.04,29.92,10,10,10,20,6,26,T,3,Rain,159
2011-11-9,65,51,37,57,45,31,80,68,56,30.18,29.97,29.77,10,9,2,30,13,38,0.69,6,Rain-Thunderstorm,237
2011-11-10,49,40,31,32,25,19,82,57,31,30.18,30.16,30.12,10,10,1,24,8,37,0.00,1,,275
2011-11-11,56,42,27,31,26,21,85,57,29,30.19,30.07,29.96,10,10,10,16,6,22,0.00,0,,189
2011-11-12,64,54,43,38,35,32,65,50,34,30.05,29.98,29.86,10,10,10,23,14,31,0.00,1,,200
2011-11-13,72,65,57,54,50,37,65,54,43,29.85,29.76,29.68,10,10,10,35,19,47,0.00,4,,200
2011-11-14,76,68,59,61,58,54,97,77,57,29.86,29.74,29.67,10,8,1,45,16,62,1.37,6,Rain-Thunderstorm,215
2011-11-15,61,57,52,54,52,48,93,87,80,29.89,29.86,29.82,10,9,4,16,5,22,0.75,8,Rain,181
2011-11-16,57,48,38,54,38,20,93,61,29,30.22,29.97,29.82,10,8,2,21,10,29,0.25,5,Rain,357
2011-11-17,47,38,28,25,19,11,69,46,23,30.39,30.33,30.23,10,10,10,18,6,23,0.00,2,,303
2011-11-18,53,40,26,26,20,16,81,53,24,30.40,30.27,30.12,10,10,10,17,8,23,0.00,0,,167
2011-11-19,64,54,44,52,38,26,64,54,44,30.14,30.06,29.96,10,10,5,22,12,32,0.04,5,Rain,185
2011-11-20,61,55,48,58,51,46,93,84,75,30.20,30.14,30.08,10,5,1,14,5,17,0.42,8,Rain,306
2011-11-21,57,54,50,54,51,46,96,91,86,30.20,30.14,30.06,6,2,0,15,2,17,0.52,8,Fog-Rain-Thunderstorm,1
2011-11-22,66,56,46,61,51,41,96,87,77,30.04,29.89,29.72,10,6,1,26,10,33,1.12,8,Rain,278
2011-11-23,47,46,44,41,41,39,89,83,76,30.35,30.25,30.04,10,7,1,20,6,26,0.00,8,,292
2011-11-24,49,44,38,43,40,36,96,88,80,30.41,30.33,30.26,10,5,0,12,6,15,0.00,5,Fog,182
2011-11-25,63,50,36,44,37,34,93,68,43,30.26,30.20,30.07,10,5,0,21,8,26,0.00,0,Fog,176
2011-11-26,69,59,49,55,48,37,93,71,49,30.11,29.97,29.85,10,8,3,20,9,28,0.41,6,Rain,174
2011-11-27,58,48,38,55,39,34,93,86,79,30.08,29.97,29.84,10,8,4,22,8,28,1.04,8,Rain,319
2011-11-28,43,41,39,41,37,34,96,89,82,30.04,29.84,29.65,10,7,2,26,13,35,0.74,8,Rain,16
2011-11-29,43,38,33,39,33,28,92,81,70,30.04,29.81,29.68,10,6,0,21,7,32,0.43,8,Fog-Rain-Snow,269
2011-11-30,44,35,26,27,24,22,85,65,45,30.25,30.17,30.04,10,10,10,14,4,21,0.00,0,,298